Time;durP1;ratioP1;P1;durP2;ratioP2;P2;SDS_P1;SDS_P2;PMS_P1;PMS_P2;Temp;Humidity;BMP_temperature;BMP_pressure;BME280_temperature;BME280_humidity;BME280_pressure;Samples;Min_cycle;Max_cycle;Signal;HPM_P1;HPM_P2
2022/01/11 06:20:32;;;;;;;46.58;20.30;;;;;;;;;;5042212;23;20066;-57
2022/01/11 06:22:59;;;;;;;34.40;16.55;;;;;;;;;;4914037;29;20043;-58
2022/01/11 06:25:25;;;;;;;42.70;19.65;;;;;;;;;;4914360;29;20503;-59
2022/01/11 06:27:51;;;;;;;37.47;18.05;;;;;;;;;;4914527;29;20361;-58
2022/01/11 06:30:17;;;;;;;40.47;21.08;;;;;;;;;;4914267;29;20032;-59
2022/01/11 06:32:45;;;;;;;53.13;27.25;;;;;;;;;;4914404;29;20032;-61
2022/01/11 06:35:12;;;;;;;52.03;25.55;;;;;;;;;;4917239;29;20044;-59
2022/01/11 06:37:39;;;;;;;42.85;23.15;;;;;;;;;;4917913;29;20428;-58
2022/01/11 06:40:05;;;;;;;42.80;22.50;;;;;;;;;;4917733;29;20028;-57
2022/01/11 06:42:32;;;;;;;70.28;32.92;;;;;;;;;;4917665;29;20056;-57
2022/01/11 06:44:58;;;;;;;51.60;24.80;;;;;;;;;;4917726;29;20035;-57
2022/01/11 06:47:24;;;;;;;47.10;22.80;;;;;;;;;;4917640;29;20067;-58
2022/01/11 06:49:50;;;;;;;62.20;31.55;;;;;;;;;;4917379;29;20379;-59
2022/01/11 06:52:16;;;;;;;70.35;35.85;;;;;;;;;;4917254;29;20425;-62
2022/01/11 06:54:42;;;;;;;47.00;23.33;;;;;;;;;;4917089;29;20063;-61
2022/01/11 06:57:09;;;;;;;43.40;21.02;;;;;;;;;;4917638;29;20058;-60
2022/01/11 06:59:37;;;;;;;41.55;20.23;;;;;;;;;;4917556;29;20043;-58
2022/01/11 07:02:06;;;;;;;49.55;27.38;;;;;;;;;;4917391;29;20028;-60
2022/01/11 07:04:33;;;;;;;39.95;20.75;;;;;;;;;;4917354;29;20029;-59
2022/01/11 07:06:59;;;;;;;41.35;18.95;;;;;;;;;;4917282;29;20031;-62
2022/01/11 07:09:26;;;;;;;35.63;16.15;;;;;;;;;;4917092;29;20107;-60
2022/01/11 07:11:52;;;;;;;33.80;14.75;;;;;;;;;;4916904;29;20032;-61
2022/01/11 07:14:18;;;;;;;37.88;19.48;;;;;;;;;;4917064;29;20477;-62
2022/01/11 07:16:48;;;;;;;34.90;17.40;;;;;;;;;;4916838;29;20056;-61
2022/01/11 07:19:15;;;;;;;30.67;15.90;;;;;;;;;;4916588;29;20024;-62
2022/01/11 07:21:41;;;;;;;37.58;16.23;;;;;;;;;;4916493;29;20048;-61
2022/01/11 07:24:07;;;;;;;33.15;14.90;;;;;;;;;;4916591;29;20031;-61
2022/01/11 07:26:34;;;;;;;32.35;14.98;;;;;;;;;;4916487;29;20387;-60
2022/01/11 07:29:00;;;;;;;27.75;14.23;;;;;;;;;;4916578;29;20131;-61
2022/01/11 07:31:27;;;;;;;28.58;14.50;;;;;;;;;;4916499;29;20132;-61
2022/01/11 07:33:53;;;;;;;31.33;15.95;;;;;;;;;;4916108;29;20048;-59
2022/01/11 07:36:19;;;;;;;33.38;15.52;;;;;;;;;;4915286;29;20032;-60
2022/01/11 07:38:45;;;;;;;39.47;19.25;;;;;;;;;;4909043;29;20033;-60
2022/01/11 07:41:11;;;;;;;37.33;18.92;;;;;;;;;;4897675;29;20488;-57
2022/01/11 07:43:37;;;;;;;34.45;17.95;;;;;;;;;;4897731;29;20028;-61
2022/01/11 07:46:03;;;;;;;37.50;18.98;;;;;;;;;;4897276;29;20536;-59
2022/01/11 07:48:29;;;;;;;32.63;16.95;;;;;;;;;;4880373;29;20455;-60
2022/01/11 07:50:56;;;;;;;33.45;18.67;;;;;;;;;;4897444;29;20076;-59
2022/01/11 07:53:22;;;;;;;35.25;20.02;;;;;;;;;;4897453;29;20127;-58
2022/01/11 07:55:48;;;;;;;33.90;16.05;;;;;;;;;;4925101;29;20040;-58
2022/01/11 07:58:14;;;;;;;30.45;14.75;;;;;;;;;;4935170;29;20024;-60
2022/01/11 08:00:40;;;;;;;32.75;15.57;;;;;;;;;;4913221;29;20043;-59
2022/01/11 08:03:09;;;;;;;29.10;15.75;;;;;;;;;;4931313;29;20028;-59
2022/01/11 08:05:37;;;;;;;34.05;16.25;;;;;;;;;;4927807;29;20394;-59
2022/01/11 08:08:07;;;;;;;29.17;14.30;;;;;;;;;;4925878;29;20095;-59
2022/01/11 08:10:37;;;;;;;68.75;29.88;;;;;;;;;;4929539;29;20032;-60
2022/01/11 08:13:10;;;;;;;42.25;21.30;;;;;;;;;;4930516;29;20020;-62
2022/01/11 08:15:37;;;;;;;35.95;18.80;;;;;;;;;;4931378;29;20567;-56
2022/01/11 08:18:03;;;;;;;35.67;17.58;;;;;;;;;;4923424;29;20039;-57
2022/01/11 08:20:29;;;;;;;33.05;16.85;;;;;;;;;;4928730;29;20062;-58
2022/01/11 08:22:56;;;;;;;34.90;16.35;;;;;;;;;;4922400;29;20037;-56
2022/01/11 08:25:23;;;;;;;30.70;14.98;;;;;;;;;;4927294;29;20123;-56
2022/01/11 08:27:49;;;;;;;31.70;15.85;;;;;;;;;;4934270;29;20038;-57
2022/01/11 08:30:15;;;;;;;31.27;15.43;;;;;;;;;;4927744;29;20035;-57
2022/01/11 08:32:41;;;;;;;30.73;12.90;;;;;;;;;;4915665;29;20027;-58
2022/01/11 08:35:07;;;;;;;30.88;15.50;;;;;;;;;;4915171;29;20079;-56
2022/01/11 08:37:33;;;;;;;36.03;15.90;;;;;;;;;;4915474;29;20024;-56
2022/01/11 08:39:59;;;;;;;34.83;16.65;;;;;;;;;;4915302;29;20032;-55
2022/01/11 08:42:27;;;;;;;31.98;15.93;;;;;;;;;;4915315;29;20024;-56
2022/01/11 08:44:54;;;;;;;30.13;15.25;;;;;;;;;;4922202;29;20119;-56
2022/01/11 08:47:20;;;;;;;35.45;16.85;;;;;;;;;;4922036;29;20039;-57
2022/01/11 08:49:46;;;;;;;66.20;29.00;;;;;;;;;;4925544;29;20531;-58
2022/01/11 08:52:13;;;;;;;46.28;21.35;;;;;;;;;;4922761;29;20067;-59
2022/01/11 08:54:39;;;;;;;34.45;17.63;;;;;;;;;;4917326;29;20095;-60
2022/01/11 08:57:06;;;;;;;36.15;20.42;;;;;;;;;;4914620;29;20627;-59
2022/01/11 08:59:32;;;;;;;38.90;19.60;;;;;;;;;;4918085;29;20531;-59
2022/01/11 09:01:59;;;;;;;32.47;16.70;;;;;;;;;;4926469;29;20047;-58
2022/01/11 09:04:26;;;;;;;54.67;30.00;;;;;;;;;;4923600;29;20031;-61
2022/01/11 09:06:57;;;;;;;25.05;13.38;;;;;;;;;;4928171;29;20123;-61
2022/01/11 09:09:28;;;;;;;30.55;15.23;;;;;;;;;;4920864;29;20476;-57
2022/01/11 09:11:55;;;;;;;37.08;18.35;;;;;;;;;;4923209;29;20020;-59
2022/01/11 09:14:21;;;;;;;25.80;13.65;;;;;;;;;;4905642;29;20035;-60
2022/01/11 09:16:48;;;;;;;29.83;16.83;;;;;;;;;;4921959;29;20056;-56
2022/01/11 09:19:15;;;;;;;39.22;19.00;;;;;;;;;;4919883;29;20028;-58
2022/01/11 09:21:42;;;;;;;23.65;12.75;;;;;;;;;;4920251;29;20063;-60
2022/01/11 09:24:09;;;;;;;29.48;15.68;;;;;;;;;;4916615;29;20134;-60
2022/01/11 09:26:35;;;;;;;25.38;12.70;;;;;;;;;;4914314;29;20036;-61
2022/01/11 09:29:01;;;;;;;34.08;18.33;;;;;;;;;;4917277;29;20048;-60
2022/01/11 09:31:27;;;;;;;39.83;17.67;;;;;;;;;;4921051;29;20086;-60
2022/01/11 09:33:53;;;;;;;37.20;18.77;;;;;;;;;;4919380;29;20539;-59
2022/01/11 09:36:19;;;;;;;48.40;20.60;;;;;;;;;;4923852;29;20067;-58
2022/01/11 09:38:45;;;;;;;50.20;21.55;;;;;;;;;;4923953;29;20039;-59
2022/01/11 09:41:12;;;;;;;34.65;15.57;;;;;;;;;;4919920;29;20090;-59
2022/01/11 09:43:38;;;;;;;110.28;41.88;;;;;;;;;;4923609;29;20024;-59
2022/01/11 09:46:04;;;;;;;149.05;54.85;;;;;;;;;;4923286;29;20531;-60
2022/01/11 09:48:32;;;;;;;65.07;28.38;;;;;;;;;;4923771;29;20047;-62
2022/01/11 09:50:58;;;;;;;82.75;37.00;;;;;;;;;;4919616;29;20028;-61
2022/01/11 09:53:25;;;;;;;36.22;17.88;;;;;;;;;;4920500;29;20040;-62
2022/01/11 09:55:51;;;;;;;40.83;19.70;;;;;;;;;;4922707;29;20036;-62
2022/01/11 09:58:18;;;;;;;54.08;24.75;;;;;;;;;;4921931;29;20026;-61
2022/01/11 10:00:44;;;;;;;36.25;18.33;;;;;;;;;;4919567;29;20032;-59
2022/01/11 10:03:10;;;;;;;33.33;17.30;;;;;;;;;;4922750;29;20111;-59
2022/01/11 10:05:37;;;;;;;29.00;15.15;;;;;;;;;;4921103;29;20043;-57
2022/01/11 10:08:18;;;;;;;38.80;18.25;;;;;;;;;;4921913;29;20377;-62
2022/01/11 10:10:45;;;;;;;28.02;14.05;;;;;;;;;;4922135;29;20058;-61
2022/01/11 10:13:27;;;;;;;20.30;11.23;;;;;;;;;;4923944;29;20027;-62
2022/01/11 10:15:53;;;;;;;24.92;13.20;;;;;;;;;;4912795;29;20036;-62
2022/01/11 10:18:35;;;;;;;22.35;12.82;;;;;;;;;;4917928;29;20062;-61
2022/01/11 10:21:01;;;;;;;28.63;14.98;;;;;;;;;;4917515;29;20048;-63
2022/01/11 10:23:34;;;;;;;30.73;15.18;;;;;;;;;;4925535;29;20028;-62
2022/01/11 10:26:00;;;;;;;26.25;13.52;;;;;;;;;;4924152;29;20040;-60
2022/01/11 10:28:36;;;;;;;43.15;22.38;;;;;;;;;;4923442;29;20060;-60
2022/01/11 10:31:02;;;;;;;113.45;48.42;;;;;;;;;;4898918;29;20031;-60
2022/01/11 10:33:28;;;;;;;45.38;19.40;;;;;;;;;;4925617;29;20032;-62
2022/01/11 10:35:54;;;;;;;86.05;35.70;;;;;;;;;;4909923;29;20063;-61
2022/01/11 10:38:25;;;;;;;56.63;29.27;;;;;;;;;;4935691;29;20028;-60
2022/01/11 10:40:51;;;;;;;34.22;15.80;;;;;;;;;;4917213;29;20448;-58
2022/01/11 10:43:19;;;;;;;28.35;14.48;;;;;;;;;;4917526;29;20028;-62
2022/01/11 10:45:46;;;;;;;27.60;12.90;;;;;;;;;;4916858;29;20032;-62
2022/01/11 10:48:13;;;;;;;22.63;11.40;;;;;;;;;;4917526;29;20036;-61
2022/01/11 10:50:39;;;;;;;27.30;13.70;;;;;;;;;;4917566;29;20479;-61
2022/01/11 10:53:12;;;;;;;27.08;13.13;;;;;;;;;;4917473;29;20068;-61
2022/01/11 10:55:38;;;;;;;22.75;11.65;;;;;;;;;;4913733;29;20044;-60
2022/01/11 10:58:06;;;;;;;27.88;13.90;;;;;;;;;;4906483;29;20045;-61
2022/01/11 11:00:32;;;;;;;22.70;12.73;;;;;;;;;;4892562;29;20075;-62
2022/01/11 11:03:03;;;;;;;27.73;14.20;;;;;;;;;;4911577;29;20035;-61
2022/01/11 11:05:33;;;;;;;27.88;14.05;;;;;;;;;;4911182;29;20051;-60
2022/01/11 11:07:59;;;;;;;33.33;17.10;;;;;;;;;;4915373;29;20060;-61
2022/01/11 11:10:37;;;;;;;39.70;18.60;;;;;;;;;;4908015;29;20068;-60
2022/01/11 11:13:04;;;;;;;37.88;20.23;;;;;;;;;;4916959;29;20024;-61
2022/01/11 11:15:32;;;;;;;42.50;20.67;;;;;;;;;;4918638;29;20492;-56
2022/01/11 11:17:58;;;;;;;39.97;20.23;;;;;;;;;;4918671;29;20028;-59
2022/01/11 11:20:24;;;;;;;45.40;23.08;;;;;;;;;;4917674;29;20044;-56
2022/01/11 11:22:51;;;;;;;49.67;23.05;;;;;;;;;;4918277;29;20452;-57
2022/01/11 11:25:17;;;;;;;131.23;53.03;;;;;;;;;;4917541;29;20388;-58
2022/01/11 11:27:43;;;;;;;41.53;20.48;;;;;;;;;;4912777;29;20040;-61
2022/01/11 11:30:09;;;;;;;40.75;18.80;;;;;;;;;;4905786;29;20021;-60
2022/01/11 11:32:36;;;;;;;59.38;29.17;;;;;;;;;;4915135;29;20029;-58
2022/01/11 11:35:05;;;;;;;43.92;21.88;;;;;;;;;;4911635;29;20178;-60
2022/01/11 11:37:37;;;;;;;31.83;16.92;;;;;;;;;;4912054;29;20111;-62
2022/01/11 11:40:09;;;;;;;40.83;21.45;;;;;;;;;;4910172;29;20496;-61
2022/01/11 11:42:35;;;;;;;33.60;17.30;;;;;;;;;;4905788;29;20029;-64
2022/01/11 11:45:14;;;;;;;43.55;20.38;;;;;;;;;;4918643;29;20088;-61
2022/01/11 11:47:40;;;;;;;39.70;19.63;;;;;;;;;;4916314;29;20027;-61
2022/01/11 11:50:06;;;;;;;35.72;18.45;;;;;;;;;;4916104;29;20540;-61
2022/01/11 11:52:39;;;;;;;35.03;19.08;;;;;;;;;;4916143;29;20488;-62
2022/01/11 11:55:19;;;;;;;39.05;19.92;;;;;;;;;;4916777;29;20032;-62
2022/01/11 11:57:46;;;;;;;42.53;20.95;;;;;;;;;;4935570;29;20023;-61
2022/01/11 12:00:18;;;;;;;35.53;18.65;;;;;;;;;;4935034;29;20035;-61
2022/01/11 12:02:45;;;;;;;31.98;16.35;;;;;;;;;;4935144;29;20024;-62
2022/01/11 12:05:29;;;;;;;27.52;14.15;;;;;;;;;;4935248;29;20031;-62
2022/01/11 12:07:56;;;;;;;35.60;18.27;;;;;;;;;;4935134;29;20031;-62
2022/01/11 12:10:30;;;;;;;37.88;18.67;;;;;;;;;;4935081;29;20102;-62
2022/01/11 12:12:57;;;;;;;36.50;17.83;;;;;;;;;;4934727;29;20032;-61
2022/01/11 12:15:23;;;;;;;41.15;19.30;;;;;;;;;;4934844;29;20518;-63
2022/01/11 12:18:09;;;;;;;35.40;18.50;;;;;;;;;;4934853;29;20464;-62
2022/01/11 12:20:46;;;;;;;33.83;17.98;;;;;;;;;;4934411;29;20052;-60
2022/01/11 12:23:13;;;;;;;32.45;16.77;;;;;;;;;;4934607;29;20107;-61
2022/01/11 12:25:43;;;;;;;27.60;14.30;;;;;;;;;;4933143;29;20027;-61
2022/01/11 12:28:16;;;;;;;30.38;16.98;;;;;;;;;;4915539;29;20025;-60
2022/01/11 12:30:43;;;;;;;39.83;19.05;;;;;;;;;;4915183;29;20033;-61
2022/01/11 12:33:11;;;;;;;41.13;19.92;;;;;;;;;;4915189;29;20392;-62
2022/01/11 12:35:57;;;;;;;35.80;19.10;;;;;;;;;;4915288;29;20492;-60
2022/01/11 12:38:25;;;;;;;34.42;16.85;;;;;;;;;;4915372;29;20540;-63
2022/01/11 12:40:51;;;;;;;33.50;17.63;;;;;;;;;;4915277;29;20028;-62
2022/01/11 12:43:36;;;;;;;38.35;19.23;;;;;;;;;;4915273;29;20028;-61
2022/01/11 12:46:08;;;;;;;37.40;18.02;;;;;;;;;;4915328;29;20072;-61
2022/01/11 12:48:44;;;;;;;33.28;17.20;;;;;;;;;;4915129;29;20068;-61
2022/01/11 12:51:10;;;;;;;32.53;16.45;;;;;;;;;;4914973;29;20035;-62
2022/01/11 12:53:37;;;;;;;38.70;19.17;;;;;;;;;;4915002;29;20025;-60
2022/01/11 12:56:03;;;;;;;37.13;19.15;;;;;;;;;;4915420;29;20342;-62
2022/01/11 12:58:30;;;;;;;38.05;19.30;;;;;;;;;;4915388;29;20103;-63
2022/01/11 13:00:56;;;;;;;44.55;21.65;;;;;;;;;;4914193;29;20036;-63
2022/01/11 13:03:23;;;;;;;42.58;21.58;;;;;;;;;;4914392;29;20096;-58
2022/01/11 13:05:54;;;;;;;37.45;19.77;;;;;;;;;;4883415;29;20032;-62
2022/01/11 13:08:29;;;;;;;39.75;20.20;;;;;;;;;;4914862;29;20117;-62
2022/01/11 13:10:55;;;;;;;42.53;20.77;;;;;;;;;;4915204;29;20035;-62
2022/01/11 13:13:26;;;;;;;43.63;21.75;;;;;;;;;;4914745;29;20107;-62
2022/01/11 13:15:52;;;;;;;39.08;20.25;;;;;;;;;;4914725;29;20373;-62
2022/01/11 13:18:21;;;;;;;42.17;20.35;;;;;;;;;;4914538;29;20737;-63
2022/01/11 13:20:58;;;;;;;41.15;18.95;;;;;;;;;;4914278;29;20167;-66
2022/01/11 13:23:27;;;;;;;40.55;20.88;;;;;;;;;;4924523;29;20106;-62
2022/01/11 13:25:57;;;;;;;33.00;17.50;;;;;;;;;;4933846;29;20020;-63
2022/01/11 13:28:38;;;;;;;37.42;19.08;;;;;;;;;;4933535;29;20037;-63
2022/01/11 13:31:07;;;;;;;37.33;18.17;;;;;;;;;;4932240;29;20035;-61
2022/01/11 13:33:34;;;;;;;31.38;16.92;;;;;;;;;;4933169;29;20484;-60
2022/01/11 13:36:08;;;;;;;33.20;17.40;;;;;;;;;;4933271;29;20407;-61
2022/01/11 13:38:35;;;;;;;29.88;14.77;;;;;;;;;;4895656;29;20092;-64
2022/01/11 13:41:02;;;;;;;32.15;16.05;;;;;;;;;;4894733;29;20584;-60
2022/01/11 13:43:36;;;;;;;31.38;14.90;;;;;;;;;;4897057;29;20481;-62
2022/01/11 13:46:02;;;;;;;29.70;14.93;;;;;;;;;;4909378;29;20032;-61
2022/01/11 13:48:28;;;;;;;34.60;16.33;;;;;;;;;;4918787;29;20119;-62
2022/01/11 13:50:56;;;;;;;35.70;18.33;;;;;;;;;;4915579;29;20028;-61
2022/01/11 13:53:23;;;;;;;37.53;20.15;;;;;;;;;;4909073;29;20488;-61
2022/01/11 13:55:49;;;;;;;41.72;20.33;;;;;;;;;;4907603;29;20087;-61
2022/01/11 13:58:16;;;;;;;43.90;21.00;;;;;;;;;;4908392;29;20044;-62
2022/01/11 14:00:42;;;;;;;49.97;21.42;;;;;;;;;;4910377;29;20036;-60
2022/01/11 14:03:15;;;;;;;42.88;20.92;;;;;;;;;;4912465;29;20024;-60
2022/01/11 14:05:41;;;;;;;17.23;9.13;;;;;;;;;;4908722;29;20025;-61
2022/01/11 14:08:10;;;;;;;41.78;20.55;;;;;;;;;;4906740;29;20380;-62
2022/01/11 14:10:37;;;;;;;36.20;17.95;;;;;;;;;;4908516;29;20507;-60
2022/01/11 14:13:07;;;;;;;41.72;19.95;;;;;;;;;;4908564;29;20032;-61
2022/01/11 14:15:34;;;;;;;37.50;19.15;;;;;;;;;;4907146;29;20051;-61
2022/01/11 14:18:01;;;;;;;39.17;19.00;;;;;;;;;;4907478;29;20026;-62
2022/01/11 14:20:28;;;;;;;35.03;18.45;;;;;;;;;;4906318;29;20149;-61
2022/01/11 14:22:58;;;;;;;36.42;18.08;;;;;;;;;;4905854;29;20040;-61
2022/01/11 14:25:27;;;;;;;49.00;22.85;;;;;;;;;;4908076;29;20031;-60
2022/01/11 14:27:59;;;;;;;41.30;20.80;;;;;;;;;;4914917;29;20054;-60
2022/01/11 14:30:25;;;;;;;;;;;;;;;;;;4909663;29;20072;-61
2022/01/11 14:32:53;;;;;;;42.53;20.80;;;;;;;;;;4906791;29;19991;-61
2022/01/11 14:35:20;;;;;;;42.58;20.27;;;;;;;;;;4908269;29;20400;-61
2022/01/11 14:37:58;;;;;;;41.70;20.17;;;;;;;;;;4908297;29;20465;-60
2022/01/11 14:40:28;;;;;;;39.15;18.10;;;;;;;;;;4909305;29;20028;-60
2022/01/11 14:42:54;;;;;;;48.40;21.95;;;;;;;;;;4906597;29;20021;-58
2022/01/11 14:45:22;;;;;;;50.92;24.25;;;;;;;;;;4907457;29;20347;-58
2022/01/11 14:47:50;;;;;;;47.58;22.88;;;;;;;;;;4906525;29;20495;-59
2022/01/11 14:50:18;;;;;;;44.13;21.80;;;;;;;;;;4905722;29;20035;-58
2022/01/11 14:52:51;;;;;;;47.05;23.95;;;;;;;;;;4908292;29;20024;-60
2022/01/11 14:55:18;;;;;;;;;;;;;;;;;;4916550;29;20028;-59
2022/01/11 14:57:45;;;;;;;45.38;22.38;;;;;;;;;;4891033;29;19918;-58
2022/01/11 15:00:25;;;;;;;47.25;22.65;;;;;;;;;;4908135;29;20107;-59
2022/01/11 15:02:52;;;;;;;44.20;22.48;;;;;;;;;;4927690;29;20027;-60
2022/01/11 15:20:13;;;;;;;42.53;21.05;;;;;;;;;;4916709;29;20095;-60
2022/01/11 15:22:40;;;;;;;37.33;20.23;;;;;;;;;;4925565;29;20039;-60
2022/01/11 15:25:09;;;;;;;40.05;20.50;;;;;;;;;;4909535;29;20036;-61
2022/01/11 15:27:37;;;;;;;41.60;19.73;;;;;;;;;;4910388;29;20114;-61
2022/01/11 15:30:04;;;;;;;37.47;20.05;;;;;;;;;;4906581;29;20391;-60
2022/01/11 15:32:30;;;;;;;39.25;19.85;;;;;;;;;;4900142;29;20036;-61
2022/01/11 15:34:56;;;;;;;38.58;20.10;;;;;;;;;;4921590;29;20036;-60
2022/01/11 15:37:22;;;;;;;36.83;19.77;;;;;;;;;;4912817;29;20107;-61
2022/01/11 15:39:48;;;;;;;41.40;20.42;;;;;;;;;;4916212;29;20119;-60
2022/01/11 15:42:14;;;;;;;38.15;20.35;;;;;;;;;;4907947;29;20452;-60
2022/01/11 15:44:41;;;;;;;40.70;20.80;;;;;;;;;;4907028;29;20242;-60
2022/01/11 15:47:08;;;;;;;38.47;20.75;;;;;;;;;;4915240;29;20071;-60
2022/01/11 15:49:34;;;;;;;37.25;19.42;;;;;;;;;;4907454;29;20473;-59
2022/01/11 15:52:00;;;;;;;37.63;20.13;;;;;;;;;;4906413;29;20403;-59
2022/01/11 15:54:26;;;;;;;39.53;20.77;;;;;;;;;;4905788;29;20027;-59
2022/01/11 15:56:53;;;;;;;43.65;22.13;;;;;;;;;;4907425;29;20340;-59
2022/01/11 15:59:19;;;;;;;39.15;20.48;;;;;;;;;;4903397;29;20017;-58
2022/01/11 16:01:46;;;;;;;37.90;19.83;;;;;;;;;;4897522;29;20032;-59
2022/01/11 16:04:12;;;;;;;39.33;20.48;;;;;;;;;;4897049;29;20036;-59
2022/01/11 16:06:38;;;;;;;35.90;19.02;;;;;;;;;;4897215;29;20088;-59
2022/01/11 16:09:05;;;;;;;39.42;19.27;;;;;;;;;;4896892;29;20400;-59
2022/01/11 16:11:31;;;;;;;44.15;20.33;;;;;;;;;;4927519;29;20868;-59
2022/01/11 16:14:02;;;;;;;43.40;20.65;;;;;;;;;;4933978;29;20044;-59
2022/01/11 16:16:28;;;;;;;48.88;23.20;;;;;;;;;;4933490;29;20069;-61
2022/01/11 16:18:55;;;;;;;44.70;21.50;;;;;;;;;;4924704;29;20027;-59
2022/01/11 16:21:21;;;;;;;39.63;20.95;;;;;;;;;;4928780;29;20481;-59
2022/01/11 16:23:47;;;;;;;36.53;19.05;;;;;;;;;;4934385;29;20135;-59
2022/01/11 16:26:13;;;;;;;40.22;18.88;;;;;;;;;;4934833;29;20023;-59
2022/01/11 16:28:39;;;;;;;37.30;18.27;;;;;;;;;;4934763;29;20035;-59
2022/01/11 16:31:05;;;;;;;37.20;18.80;;;;;;;;;;4934705;29;20436;-59
2022/01/11 16:33:31;;;;;;;36.35;18.27;;;;;;;;;;4915198;29;20040;-61
2022/01/11 16:36:00;;;;;;;40.17;19.55;;;;;;;;;;4905098;29;20101;-60
2022/01/11 16:38:26;;;;;;;38.72;19.38;;;;;;;;;;4907157;29;20511;-60
2022/01/11 16:43:26;;;;;;;36.63;18.42;;;;;;;;;;4922250;29;20083;-60
2022/01/11 16:46:03;;;;;;;35.20;17.42;;;;;;;;;;4915332;29;20189;-60
2022/01/11 16:48:29;;;;;;;43.15;18.52;;;;;;;;;;4915329;29;20035;-60
2022/01/11 16:50:56;;;;;;;38.85;17.60;;;;;;;;;;4885147;29;20035;-61
2022/01/11 16:53:24;;;;;;;45.55;20.02;;;;;;;;;;4896327;29;20377;-60
2022/01/11 16:55:51;;;;;;;50.33;21.80;;;;;;;;;;4896431;29;20055;-62
2022/01/11 16:58:17;;;;;;;50.05;22.25;;;;;;;;;;4879397;29;20039;-59
2022/01/11 17:00:44;;;;;;;47.72;22.38;;;;;;;;;;4896208;29;20039;-60
2022/01/11 17:03:10;;;;;;;45.30;20.50;;;;;;;;;;4896363;29;20457;-60
2022/01/11 17:05:37;;;;;;;47.20;20.70;;;;;;;;;;4896359;29;20031;-60
2022/01/11 17:08:03;;;;;;;40.70;20.27;;;;;;;;;;4896071;29;20437;-60
2022/01/11 17:10:30;;;;;;;46.70;21.17;;;;;;;;;;4903482;29;20024;-60
2022/01/11 17:12:56;;;;;;;41.25;21.48;;;;;;;;;;4915085;29;20388;-60
2022/01/11 17:15:22;;;;;;;43.40;21.63;;;;;;;;;;4915110;29;20043;-60
2022/01/11 17:17:48;;;;;;;40.03;20.98;;;;;;;;;;4914787;29;20081;-60
2022/01/11 17:20:16;;;;;;;42.85;21.92;;;;;;;;;;4914839;29;20058;-61
2022/01/11 17:22:42;;;;;;;41.58;20.98;;;;;;;;;;4898347;29;20496;-60
2022/01/11 17:25:09;;;;;;;41.10;20.02;;;;;;;;;;4914800;29;20036;-60
2022/01/11 17:27:38;;;;;;;45.13;21.27;;;;;;;;;;4915174;29;20392;-60
2022/01/11 17:30:04;;;;;;;41.58;21.20;;;;;;;;;;4915050;29;20489;-61
2022/01/11 17:32:33;;;;;;;44.35;23.33;;;;;;;;;;4914827;29;20036;-60
2022/01/11 17:34:59;;;;;;;40.28;20.95;;;;;;;;;;4914944;29;20024;-60
2022/01/11 17:37:25;;;;;;;40.47;20.23;;;;;;;;;;4914753;29;20051;-60
2022/01/11 17:39:52;;;;;;;38.40;19.63;;;;;;;;;;4914759;29;20036;-60
2022/01/11 17:42:18;;;;;;;36.80;19.58;;;;;;;;;;4914484;29;20024;-60
2022/01/11 17:44:44;;;;;;;36.10;19.30;;;;;;;;;;4914312;29;20506;-60
2022/01/11 17:47:11;;;;;;;35.78;18.75;;;;;;;;;;4914612;29;20425;-62
2022/01/11 17:49:37;;;;;;;33.30;18.45;;;;;;;;;;4914825;29;20040;-61
2022/01/11 17:52:04;;;;;;;34.22;18.48;;;;;;;;;;4914717;29;20037;-60
2022/01/11 17:54:30;;;;;;;35.80;18.50;;;;;;;;;;4914216;29;20060;-60
2022/01/11 17:56:57;;;;;;;37.58;18.17;;;;;;;;;;4914744;29;20036;-60
2022/01/11 17:59:23;;;;;;;36.38;19.30;;;;;;;;;;4914408;29;20028;-60
2022/01/11 18:01:52;;;;;;;36.13;19.98;;;;;;;;;;4914401;29;20115;-61
2022/01/11 18:04:19;;;;;;;35.08;19.75;;;;;;;;;;4914260;29;20104;-59
2022/01/11 18:06:45;;;;;;;37.47;18.85;;;;;;;;;;4913983;29;20028;-61
2022/01/11 18:09:11;;;;;;;35.17;18.38;;;;;;;;;;4914126;29;20075;-60
2022/01/11 18:11:37;;;;;;;33.28;17.40;;;;;;;;;;4914231;29;20032;-60
2022/01/11 18:14:03;;;;;;;34.65;18.15;;;;;;;;;;4914340;29;20036;-60
2022/01/11 18:16:29;;;;;;;34.30;18.65;;;;;;;;;;4914733;29;20040;-60
2022/01/11 18:18:56;;;;;;;32.78;18.15;;;;;;;;;;4914436;29;20032;-60
2022/01/11 18:21:25;;;;;;;32.63;17.92;;;;;;;;;;4914012;29;20056;-61
2022/01/11 18:23:51;;;;;;;32.80;18.33;;;;;;;;;;4914283;29;20024;-60
2022/01/11 18:26:17;;;;;;;38.33;19.73;;;;;;;;;;4914411;29;20035;-60
2022/01/11 18:28:44;;;;;;;35.70;19.58;;;;;;;;;;4915398;29;20043;-61
2022/01/11 18:31:10;;;;;;;37.63;20.50;;;;;;;;;;4917793;29;20036;-60
2022/01/11 18:33:36;;;;;;;38.40;20.45;;;;;;;;;;4918064;29;20035;-61
2022/01/11 18:36:03;;;;;;;39.83;21.00;;;;;;;;;;4917826;29;20552;-61
2022/01/11 18:38:29;;;;;;;33.45;18.27;;;;;;;;;;4917652;29;20134;-60
2022/01/11 18:40:55;;;;;;;35.88;18.80;;;;;;;;;;4917671;29;20091;-61
2022/01/11 18:43:21;;;;;;;33.78;18.98;;;;;;;;;;4918076;29;20063;-60
2022/01/11 18:45:48;;;;;;;40.22;21.73;;;;;;;;;;4918028;29;20028;-60
2022/01/11 18:48:14;;;;;;;41.45;20.85;;;;;;;;;;4924328;29;20523;-61
2022/01/11 18:50:41;;;;;;;34.67;19.15;;;;;;;;;;4925324;29;20032;-61
2022/01/11 18:53:08;;;;;;;34.72;19.60;;;;;;;;;;4930887;29;20028;-61
2022/01/11 18:55:34;;;;;;;35.67;18.55;;;;;;;;;;4922412;29;20036;-61
2022/01/11 18:58:01;;;;;;;34.08;17.58;;;;;;;;;;4926484;29;20484;-61
2022/01/11 19:00:27;;;;;;;34.85;17.75;;;;;;;;;;4925928;29;20050;-60
2022/01/11 19:02:53;;;;;;;32.20;18.20;;;;;;;;;;4924694;29;20098;-61
2022/01/11 19:05:19;;;;;;;39.22;19.77;;;;;;;;;;4925020;29;20027;-62
2022/01/11 19:07:47;;;;;;;35.20;18.83;;;;;;;;;;4926231;29;20043;-60
2022/01/11 19:10:15;;;;;;;34.42;18.52;;;;;;;;;;4925230;29;20024;-61
2022/01/11 19:12:41;;;;;;;34.08;18.42;;;;;;;;;;4931061;29;20027;-62
2022/01/11 19:15:08;;;;;;;32.80;18.02;;;;;;;;;;4926411;29;20123;-63
2022/01/11 19:17:34;;;;;;;32.35;17.85;;;;;;;;;;4933763;29;20066;-60
2022/01/11 19:20:02;;;;;;;32.50;17.45;;;;;;;;;;4931769;29;20054;-60
2022/01/11 19:22:28;;;;;;;29.00;16.05;;;;;;;;;;4930273;29;20067;-60
2022/01/11 19:24:57;;;;;;;32.17;17.05;;;;;;;;;;4935013;29;20500;-60
2022/01/11 19:27:24;;;;;;;29.48;16.73;;;;;;;;;;4934915;29;20036;-61
2022/01/11 19:29:52;;;;;;;28.95;16.30;;;;;;;;;;4930853;29;20024;-62
2022/01/11 19:32:19;;;;;;;28.52;15.52;;;;;;;;;;4925711;29;20083;-61
2022/01/11 19:34:49;;;;;;;36.13;16.88;;;;;;;;;;4923945;29;20063;-62
2022/01/11 19:37:15;;;;;;;29.65;16.05;;;;;;;;;;4924571;29;20063;-61
2022/01/11 19:39:42;;;;;;;35.35;18.20;;;;;;;;;;4925008;29;20079;-61
2022/01/11 19:42:09;;;;;;;30.73;16.60;;;;;;;;;;4924593;29;20391;-61
2022/01/11 19:44:35;;;;;;;35.78;18.88;;;;;;;;;;4924990;29;20032;-60
2022/01/11 19:47:03;;;;;;;31.92;17.25;;;;;;;;;;4932092;29;20027;-61
2022/01/11 19:49:29;;;;;;;29.52;17.05;;;;;;;;;;4924609;29;20507;-60
2022/01/11 19:51:55;;;;;;;33.20;17.88;;;;;;;;;;4923450;29;20043;-60
2022/01/11 19:54:21;;;;;;;31.88;17.00;;;;;;;;;;4924788;29;20518;-62
2022/01/11 19:56:48;;;;;;;31.98;17.60;;;;;;;;;;4925673;29;20111;-60
2022/01/11 19:59:14;;;;;;;29.23;16.40;;;;;;;;;;4935347;29;20548;-60
2022/01/11 20:01:40;;;;;;;31.45;16.75;;;;;;;;;;4935003;29;20307;-60
2022/01/11 20:04:07;;;;;;;31.77;16.50;;;;;;;;;;4935076;29;20024;-60
2022/01/11 20:06:33;;;;;;;29.10;16.90;;;;;;;;;;4935084;29;20038;-61
2022/01/11 20:08:59;;;;;;;29.42;17.00;;;;;;;;;;4934795;29;20031;-61
2022/01/11 20:11:27;;;;;;;31.10;17.45;;;;;;;;;;4920143;29;20103;-60
2022/01/11 20:13:54;;;;;;;29.00;16.15;;;;;;;;;;4915475;29;20111;-60
2022/01/11 20:16:20;;;;;;;30.45;16.95;;;;;;;;;;4915769;29;20362;-62
2022/01/11 20:18:49;;;;;;;32.35;16.95;;;;;;;;;;4915192;29;20024;-61
2022/01/11 20:21:16;;;;;;;30.65;17.15;;;;;;;;;;4915046;29;20055;-60
2022/01/11 20:29:13;;;;;;;31.58;17.15;;;;;;;;;;4934485;29;20034;-61
2022/01/11 20:31:39;;;;;;;30.95;16.67;;;;;;;;;;4934657;29;20502;-61
2022/01/11 20:34:05;;;;;;;30.80;16.67;;;;;;;;;;4934124;29;20361;-61
2022/01/11 20:36:32;;;;;;;31.83;17.30;;;;;;;;;;4934438;29;20134;-62
2022/01/11 20:38:58;;;;;;;28.30;15.45;;;;;;;;;;4933788;29;20214;-61
2022/01/11 20:41:24;;;;;;;30.35;16.80;;;;;;;;;;4920762;29;20040;-61
2022/01/11 20:43:53;;;;;;;31.40;17.25;;;;;;;;;;4914384;29;20032;-60
2022/01/11 20:46:19;;;;;;;34.28;17.58;;;;;;;;;;4915483;29;20115;-62
2022/01/11 20:48:45;;;;;;;31.67;17.20;;;;;;;;;;4915368;29;20156;-62
2022/01/11 20:51:16;;;;;;;28.10;16.42;;;;;;;;;;4915429;29;20040;-60
2022/01/11 20:53:43;;;;;;;31.10;17.23;;;;;;;;;;4914596;29;20116;-61
2022/01/11 20:56:16;;;;;;;28.83;16.38;;;;;;;;;;4914483;29;20464;-60
2022/01/11 20:58:43;;;;;;;34.63;18.48;;;;;;;;;;4915073;29;20040;-60
2022/01/11 21:01:12;;;;;;;35.85;18.23;;;;;;;;;;4915209;29;20031;-62
2022/01/11 21:03:43;;;;;;;34.33;18.05;;;;;;;;;;4915208;29;20502;-60